Time;durP1;ratioP1;P1;durP2;ratioP2;P2;SDS_P1;SDS_P2;PMS_P1;PMS_P2;Temp;Humidity;BMP_temperature;BMP_pressure;BME280_temperature;BME280_humidity;BME280_pressure;Samples;Min_cycle;Max_cycle;Signal;HPM_P1;HPM_P2
2021/06/16 00:01:34;;;;;;;;;19.00;19.00;;;;;27.81;44.20;100964.44;5092653;27;46126;-48
2021/06/16 00:04:00;;;;;;;;;21.50;21.00;;;;;27.80;44.46;100961.88;5083306;27;45442;-48
2021/06/16 00:06:26;;;;;;;;;19.25;19.00;;;;;27.78;44.76;100964.72;5092257;27;45539;-45
2021/06/16 00:08:52;;;;;;;;;20.00;19.50;;;;;27.75;44.13;100958.69;5094015;27;47072;-44
2021/06/16 00:11:17;;;;;;;;;21.25;19.25;;;;;27.72;44.56;100954.41;5102952;27;45844;-48
2021/06/16 00:13:43;;;;;;;;;18.50;18.50;;;;;27.70;44.44;100950.94;5085888;27;45475;-46
2021/06/16 00:16:09;;;;;;;;;21.50;20.25;;;;;27.70;44.83;100952.81;5086038;27;45445;-44
2021/06/16 00:18:34;;;;;;;;;17.75;17.50;;;;;27.66;44.87;100949.47;5087955;27;48037;-45
2021/06/16 00:21:00;;;;;;;;;21.50;19.25;;;;;27.66;44.74;100948.63;5079436;27;46065;-44
2021/06/16 00:23:25;;;;;;;;;21.75;20.25;;;;;27.63;44.59;100949.72;5088381;27;45603;-44
2021/06/16 00:25:51;;;;;;;;;22.25;21.25;;;;;27.60;44.50;100940.97;5088500;27;45435;-51
2021/06/16 00:28:17;;;;;;;;;20.00;20.00;;;;;27.59;44.85;100945.56;5081302;27;47228;-48
2021/06/16 00:30:42;;;;;;;;;21.00;20.00;;;;;27.58;44.79;100938.38;5082638;27;45678;-47
2021/06/16 00:33:08;;;;;;;;;21.25;20.50;;;;;27.58;44.72;100940.25;5093897;27;45466;-48
2021/06/16 00:35:33;;;;;;;;;19.75;19.75;;;;;27.59;44.50;100934.66;5082495;27;45571;-47
2021/06/16 00:37:59;;;;;;;;;22.75;21.50;;;;;27.56;44.96;100932.19;5091995;27;48123;-46
2021/06/16 00:40:28;;;;;;;;;20.25;20.25;;;;;27.55;44.24;100933.19;5089318;27;45474;-48
2021/06/16 00:42:54;;;;;;;;;21.00;21.00;;;;;27.54;44.73;100931.44;5089963;27;45609;-49
2021/06/16 00:45:20;;;;;;;;;17.75;17.75;;;;;27.55;45.00;100927.72;5085990;27;45466;-46
2021/06/16 00:47:47;;;;;;;;;31.00;30.00;;;;;27.55;44.27;100930.44;5098115;27;47186;-47
2021/06/16 00:50:13;;;;;;;;;20.75;20.75;;;;;27.56;44.89;100932.19;5093425;27;45588;-49
2021/06/16 00:52:39;;;;;;;;;20.75;19.00;;;;;27.58;44.77;100929.34;5096382;27;45532;-50
2021/06/16 00:55:06;;;;;;;;;20.00;18.00;;;;;27.56;44.96;100934.91;5094675;27;45286;-46
2021/06/16 00:57:33;;;;;;;;;17.75;17.75;;;;;27.55;44.12;100930.44;5081312;27;48044;-49
2021/06/16 01:00:01;;;;;;;;;21.75;19.00;;;;;27.54;44.57;100920.56;5081886;27;45387;-45
2021/06/16 01:02:32;;;;;;;;;19.75;19.75;;;;;27.55;44.71;100925.00;5076188;27;45455;-48
2021/06/16 01:05:00;;;;;;;;;18.50;17.75;;;;;27.55;44.30;100919.53;5088846;27;45684;-49
2021/06/16 01:07:29;;;;;;;;;19.25;18.75;;;;;27.55;44.67;100916.81;5084137;27;47867;-48
2021/06/16 01:10:02;;;;;;;;;21.75;21.75;;;;;27.55;44.70;100911.38;5078845;27;47038;-46
2021/06/16 01:12:40;;;;;;;;;19.00;19.00;;;;;27.54;44.16;100918.69;5080864;27;45383;-45
2021/06/16 01:15:11;;;;;;;;;22.50;21.50;;;;;27.54;44.45;100917.81;5088917;27;45446;-47
2021/06/16 01:17:43;;;;;;;;;22.25;21.50;;;;;27.53;44.59;100913.38;5090493;27;48631;-45
2021/06/16 01:20:24;;;;;;;;;24.50;23.25;;;;;27.49;44.54;100899.16;5088493;27;45959;-48
2021/06/16 01:22:49;;;;;;;;;23.25;21.50;;;;;27.48;45.23;100899.31;5080288;27;45304;-46
2021/06/16 01:25:36;;;;;;;;;20.25;20.25;;;;;27.47;44.60;100901.16;5094834;27;45348;-43
2021/06/16 01:28:03;;;;;;;;;18.75;18.50;;;;;27.48;45.32;100899.31;5081814;27;47413;-46
2021/06/16 01:30:32;;;;;;;;;20.00;20.00;;;;;27.49;45.09;100901.03;5089907;27;45517;-50
2021/06/16 01:32:59;;;;;;;;;22.75;22.75;;;;;27.46;45.43;100894.00;5080492;27;45424;-47
2021/06/16 01:35:28;;;;;;;;;24.00;24.00;;;;;27.43;45.08;100890.66;5078345;27;45412;-43
2021/06/16 01:37:53;;;;;;;;;23.00;20.75;;;;;27.40;45.69;100901.84;5093749;27;47116;-46
2021/06/16 01:40:22;;;;;;;;;25.00;24.25;;;;;27.36;45.55;100895.81;5086558;27;45298;-48
2021/06/16 01:42:50;;;;;;;;;22.00;21.25;;;;;27.33;45.77;100892.50;5079418;27;45559;-47
2021/06/16 01:45:19;;;;;;;;;21.50;21.50;;;;;27.30;46.02;100888.16;5081249;27;46593;-47
2021/06/16 01:47:46;;;;;;;;;22.75;22.75;;;;;27.27;46.24;100885.72;5106805;27;47361;-44
2021/06/16 01:50:17;;;;;;;;;24.25;24.25;;;;;27.26;46.12;100894.91;5083671;27;45672;-48
2021/06/16 01:52:44;;;;;;;;;20.25;19.75;;;;;27.22;45.86;100891.59;5083820;27;45478;-44
2021/06/16 01:55:10;;;;;;;;;21.00;21.00;;;;;27.19;46.18;100886.44;5079492;27;45721;-45
2021/06/16 01:57:38;;;;;;;;;23.75;23.75;;;;;27.16;45.69;100891.25;5087250;27;47057;-45
2021/06/16 02:00:06;;;;;;;;;23.75;23.75;;;;;27.13;46.36;100881.50;5088145;27;45892;-44
2021/06/16 02:02:31;;;;;;;;;24.00;22.50;;;;;27.12;45.91;100881.66;5081670;27;45614;-45
2021/06/16 02:04:58;;;;;;;;;22.50;22.00;;;;;27.12;45.99;100877.06;5095373;27;45601;-46
2021/06/16 02:07:29;;;;;;;;;25.75;23.75;;;;;27.12;46.45;100881.66;5084806;27;46221;-47
2021/06/16 02:09:57;;;;;;;;;24.75;24.75;;;;;27.13;46.10;100876.06;5091527;27;45460;-47
2021/06/16 02:12:24;;;;;;;;;28.00;28.00;;;;;27.13;46.18;100875.19;5082146;27;45297;-47
2021/06/16 02:14:59;;;;;;;;;21.00;21.00;;;;;27.10;46.67;100876.34;5084856;27;45569;-45
2021/06/16 02:17:29;;;;;;;;;24.25;23.50;;;;;27.09;46.26;100860.13;5082552;27;46225;-46
2021/06/16 02:19:55;;;;;;;;;27.25;25.75;;;;;27.08;46.35;100856.53;5099454;27;45753;-46
2021/06/16 02:22:24;;;;;;;;;24.25;23.00;;;;;27.09;46.28;100860.13;5085146;27;45404;-47
2021/06/16 02:24:51;;;;;;;;;25.00;23.75;;;;;27.08;46.23;100856.53;5091722;27;45316;-47
2021/06/16 02:27:17;;;;;;;;;28.25;28.00;;;;;27.08;46.67;100864.72;5086419;27;46187;-47
2021/06/16 02:29:42;;;;;;;;;25.50;25.50;;;;;27.07;46.27;100853.97;5093684;27;45399;-49
2021/06/16 02:32:08;;;;;;;;;24.00;24.00;;;;;27.06;46.56;100854.94;5083104;27;45329;-47
2021/06/16 02:34:34;;;;;;;;;27.25;27.00;;;;;27.05;46.67;100851.34;5087838;27;45542;-45
2021/06/16 02:37:03;;;;;;;;;27.00;24.50;;;;;27.06;46.70;100854.94;5096610;27;48672;-45
2021/06/16 02:39:37;;;;;;;;;25.75;25.75;;;;;27.04;46.95;100851.47;5083834;27;45516;-48
2021/06/16 02:42:05;;;;;;;;;26.50;26.00;;;;;27.02;46.36;100839.88;5095703;27;45478;-49
2021/06/16 02:44:31;;;;;;;;;24.75;23.50;;;;;27.02;46.49;100845.31;5111098;27;45555;-48
2021/06/16 02:46:58;;;;;;;;;28.25;28.00;;;;;27.01;46.48;100840.84;5095540;27;47244;-47
2021/06/16 02:49:34;;;;;;;;;29.75;27.50;;;;;26.99;46.21;100840.97;5091081;27;45765;-49
2021/06/16 02:52:01;;;;;;;;;23.25;23.25;;;;;26.97;46.87;100835.66;5085960;27;45363;-45
2021/06/16 02:54:30;;;;;;;;;25.00;25.00;;;;;26.94;46.57;100830.50;5081638;27;45241;-47
2021/06/16 02:56:59;;;;;;;;;29.00;29.00;;;;;26.88;46.61;100830.16;5088685;27;47773;-50
2021/06/16 02:59:27;;;;;;;;;30.75;27.75;;;;;26.80;47.35;100838.13;5082782;27;45841;-51
2021/06/16 03:01:52;;;;;;;;;27.25;27.25;;;;;26.74;47.20;100834.09;5085576;27;47015;-48
2021/06/16 03:04:20;;;;;;;;;24.25;24.25;;;;;26.71;46.86;100828.06;5084598;27;45565;-48
2021/06/16 03:06:46;;;;;;;;;28.50;27.50;;;;;26.63;47.14;100837.75;5088578;27;47197;-48
2021/06/16 03:09:13;;;;;;;;;26.75;26.75;;;;;26.59;47.63;100827.28;5085359;27;45451;-49
2021/06/16 03:11:39;;;;;;;;;30.75;29.25;;;;;26.58;47.34;100833.72;5086905;27;45540;-47
2021/06/16 03:14:05;;;;;;;;;29.75;28.00;;;;;26.56;47.21;100831.13;5098563;27;46959;-47
2021/06/16 03:16:32;;;;;;;;;28.25;28.25;;;;;26.54;47.17;100838.56;5067866;27;46056;-48
2021/06/16 03:18:58;;;;;;;;;27.00;27.00;;;;;26.54;47.78;100834.97;5086952;27;45239;-48
2021/06/16 03:21:25;;;;;;;;;28.75;27.75;;;;;26.54;47.42;100832.25;5092776;27;45309;-49
2021/06/16 03:23:51;;;;;;;;;27.50;27.50;;;;;26.54;47.37;100826.81;5089301;27;45600;-45
2021/06/16 03:26:19;;;;;;;;;27.25;26.00;;;;;26.54;47.94;100832.25;5092915;27;48090;-48
2021/06/16 03:28:47;;;;;;;;;26.50;26.50;;;;;26.53;47.41;100834.09;5095115;27;45297;-55
2021/06/16 03:31:13;;;;;;;;;29.25;29.25;;;;;26.53;47.33;100834.09;5085456;27;45304;-48
2021/06/16 03:33:41;;;;;;;;;29.00;29.00;;;;;26.54;47.80;100835.84;5085473;27;45389;-48
2021/06/16 03:36:08;;;;;;;;;31.25;29.50;;;;;26.55;47.34;100839.41;5088180;27;45621;-46
2021/06/16 03:38:37;;;;;;;;;26.75;26.75;;;;;26.55;47.55;100832.13;5090994;27;45559;-47
2021/06/16 03:41:04;;;;;;;;;26.25;26.25;;;;;26.57;47.97;100829.28;5090307;27;45476;-46
2021/06/16 03:43:30;;;;;;;;;22.50;22.50;;;;;26.57;47.38;100834.72;5090647;27;45774;-46
2021/06/16 03:45:57;;;;;;;;;25.50;25.50;;;;;26.58;47.83;100831.00;5092075;27;46201;-47
2021/06/16 03:48:26;;;;;;;;;27.00;25.50;;;;;26.57;47.27;100832.00;5095352;27;45580;-45
2021/06/16 03:50:52;;;;;;;;;26.50;23.75;;;;;26.58;47.24;100829.16;5083611;27;45600;-47
2021/06/16 03:53:19;;;;;;;;;28.50;27.25;;;;;26.58;47.10;100837.31;5079845;27;45533;-47
2021/06/16 03:55:47;;;;;;;;;27.00;26.50;;;;;26.57;47.12;100835.59;5082311;27;48222;-46
2021/06/16 03:58:14;;;;;;;;;28.50;26.25;;;;;26.56;47.80;100830.28;5092183;27;45588;-45
2021/06/16 04:00:41;;;;;;;;;24.25;24.25;;;;;26.55;47.30;100832.13;5084560;27;45389;-48
2021/06/16 04:03:08;;;;;;;;;25.00;25.00;;;;;26.56;47.54;100836.59;5090253;27;45508;-48
2021/06/16 04:05:35;;;;;;;;;26.50;26.50;;;;;26.54;47.48;100824.94;5087816;27;47458;-47
2021/06/16 04:08:01;;;;;;;;;28.75;26.75;;;;;26.55;47.25;100821.25;5085838;27;46043;-45
2021/06/16 04:10:27;;;;;;;;;27.00;23.50;;;;;26.55;47.77;100821.25;5091755;27;45516;-45
2021/06/16 04:12:53;;;;;;;;;30.50;28.75;;;;;26.54;47.29;100819.50;5079854;27;45452;-45
2021/06/16 04:15:20;;;;;;;;;28.50;27.00;;;;;26.54;47.70;100819.50;5085617;27;47971;-48
2021/06/16 04:17:45;;;;;;;;;28.50;27.50;;;;;26.55;47.07;100825.81;5091284;27;45651;-45
2021/06/16 04:20:13;;;;;;;;;25.75;24.75;;;;;26.55;47.88;100823.97;5092045;27;45745;-48
2021/06/16 04:22:39;;;;;;;;;26.25;25.25;;;;;26.56;47.07;100827.56;5082140;27;45266;-45
2021/06/16 04:25:09;;;;;;;;;27.00;27.00;;;;;26.54;47.29;100824.94;5088988;27;47415;-46
2021/06/16 04:27:36;;;;;;;;;26.50;26.50;;;;;26.53;47.14;100825.94;5092107;27;45598;-50
2021/06/16 04:30:04;;;;;;;;;26.50;26.25;;;;;26.50;47.58;100820.78;5082984;27;45309;-50
2021/06/16 04:32:30;;;;;;;;;28.00;26.25;;;;;26.48;47.18;100817.31;5087322;27;45659;-45
2021/06/16 04:34:55;;;;;;;;;31.00;29.25;;;;;26.46;47.96;100823.91;5092319;27;46772;-45
2021/06/16 04:37:21;;;;;;;;;27.50;26.00;;;;;26.40;47.49;100819.84;5092022;27;45664;-45
2021/06/16 04:39:47;;;;;;;;;24.25;24.25;;;;;26.37;47.70;100812.81;5085618;27;45389;-46
2021/06/16 04:42:12;;;;;;;;;29.00;25.50;;;;;26.38;47.45;100811.81;5090040;27;45510;-48
2021/06/16 04:44:38;;;;;;;;;29.50;29.50;;;;;26.39;47.85;100810.81;5092425;27;48221;-45
2021/06/16 04:47:04;;;;;;;;;29.75;29.75;;;;;26.40;48.24;100803.50;5091581;27;45377;-48
2021/06/16 04:49:32;;;;;;;;;25.25;23.75;;;;;26.40;48.12;100809.81;5093940;27;45899;-45
2021/06/16 04:51:57;;;;;;;;;31.50;30.00;;;;;26.42;47.57;100809.69;5088359;27;45617;-42
2021/06/16 04:54:23;;;;;;;;;32.00;29.75;;;;;26.43;47.87;100802.41;5084127;27;46952;-47
2021/06/16 04:56:49;;;;;;;;;29.50;28.50;;;;;26.44;47.97;100799.53;5100403;27;45959;-43
2021/06/16 04:59:14;;;;;;;;;32.25;30.75;;;;;26.45;48.14;100798.56;5092154;27;45348;-43
2021/06/16 05:01:40;;;;;;;;;25.00;24.50;;;;;26.44;47.90;100791.38;5082890;27;45732;-46
2021/06/16 05:04:06;;;;;;;;;31.75;29.25;;;;;26.43;47.98;100794.25;5083545;27;48257;-49
2021/06/16 05:06:32;;;;;;;;;32.00;29.75;;;;;26.44;47.97;100785.94;5077980;27;45606;-47
2021/06/16 05:08:57;;;;;;;;;32.75;30.50;;;;;26.46;47.83;100791.25;5094364;27;45571;-47
2021/06/16 05:11:23;;;;;;;;;30.25;29.00;;;;;26.46;47.90;100796.69;5083203;27;45632;-48
2021/06/16 05:13:49;;;;;;;;;29.00;27.50;;;;;26.46;47.56;100786.66;5081403;27;47852;-45
2021/06/16 05:16:15;;;;;;;;;30.75;29.00;;;;;26.48;47.73;100787.38;5093930;27;45637;-46
2021/06/16 05:18:43;;;;;;;;;32.75;31.50;;;;;26.50;47.98;100790.84;5094427;27;45431;-48
2021/06/16 05:21:09;;;;;;;;;30.00;29.25;;;;;26.52;48.31;100782.53;5086134;27;45290;-45
2021/06/16 05:23:35;;;;;;;;;28.25;27.50;;;;;26.53;48.06;100782.38;5088892;27;47867;-47
2021/06/16 05:26:01;;;;;;;;;31.00;30.00;;;;;26.54;48.32;100788.69;5087731;27;46383;-47
2021/06/16 05:28:26;;;;;;;;;38.00;34.75;;;;;26.53;48.16;100782.38;5078515;27;45401;-46
2021/06/16 05:30:52;;;;;;;;;36.00;31.50;;;;;26.54;47.71;100783.25;5088529;27;45615;-47
2021/06/16 05:33:18;;;;;;;;;33.50;31.75;;;;;26.54;48.16;100788.69;5092521;27;48358;-45
2021/06/16 05:35:43;;;;;;;;;33.50;30.75;;;;;26.53;48.37;100786.97;5082634;27;45433;-45
2021/06/16 05:38:10;;;;;;;;;35.00;31.50;;;;;26.54;48.05;100785.97;5078082;27;45391;-46
2021/06/16 05:40:36;;;;;;;;;35.00;31.25;;;;;26.55;48.25;100777.69;5085907;27;45417;-48
2021/06/16 05:43:02;;;;;;;;;30.50;28.75;;;;;26.56;48.31;100782.16;5086638;27;47406;-50
2021/06/16 05:45:28;;;;;;;;;30.00;29.00;;;;;26.58;48.00;100782.00;5086363;27;45384;-47
2021/06/16 05:47:53;;;;;;;;;32.25;29.50;;;;;26.57;48.27;100786.59;5088766;27;45453;-44
2021/06/16 05:50:19;;;;;;;;;35.75;29.75;;;;;26.58;48.51;100779.28;5084219;27;47218;-46
2021/06/16 05:52:45;;;;;;;;;31.00;30.25;;;;;26.59;48.41;100783.72;5088018;27;45398;-44
2021/06/16 05:55:11;;;;;;;;;32.00;30.00;;;;;26.60;48.52;100780.00;5086800;27;45790;-48
2021/06/16 05:57:37;;;;;;;;;31.75;29.75;;;;;26.62;47.90;100775.28;5079483;27;45445;-50
2021/06/16 06:00:09;;;;;;;;;31.25;29.25;;;;;26.63;47.92;100777.88;5095084;27;46034;-48
2021/06/16 06:02:35;;;;;;;;;31.75;29.50;;;;;26.64;48.26;100774.16;5083573;27;46389;-49
2021/06/16 06:05:00;;;;;;;;;29.25;28.75;;;;;26.66;47.91;100771.28;5086419;27;45878;-50
2021/06/16 06:07:26;;;;;;;;;29.25;26.75;;;;;26.68;47.97;100783.78;5092187;27;45434;-45
2021/06/16 06:09:51;;;;;;;;;27.50;26.75;;;;;26.72;48.25;100783.50;5084492;27;45623;-46
2021/06/16 06:12:17;;;;;;;;;26.50;25.50;;;;;26.75;48.27;100778.66;5082104;27;46474;-46
2021/06/16 06:14:42;;;;;;;;;28.50;26.75;;;;;26.80;47.63;100780.94;5088866;27;45318;-44
2021/06/16 06:17:08;;;;;;;;;22.00;22.00;;;;;26.83;47.22;100773.41;5088896;27;45527;-44
2021/06/16 06:19:34;;;;;;;;;25.25;25.25;;;;;26.85;47.54;100771.41;5090387;27;45857;-45
2021/06/16 06:21:59;;;;;;;;;27.75;26.25;;;;;26.87;47.15;100772.13;5095462;27;46401;-47
2021/06/16 06:24:25;;;;;;;;;23.50;23.25;;;;;26.89;47.14;100772.84;5085347;27;45419;-47
2021/06/16 06:26:51;;;;;;;;;25.25;25.25;;;;;26.91;47.75;100773.56;5084663;27;45626;-48
2021/06/16 06:29:16;;;;;;;;;27.25;26.00;;;;;26.94;47.15;100777.91;5088434;27;45631;-48
2021/06/16 06:31:42;;;;;;;;;27.75;26.50;;;;;26.96;46.96;100775.88;5081751;27;48332;-44
2021/06/16 06:34:07;;;;;;;;;27.00;27.00;;;;;26.97;46.89;100777.59;5082918;27;45506;-43
2021/06/16 06:36:33;;;;;;;;;25.50;24.00;;;;;26.98;47.11;100776.59;5082929;27;45369;-43
2021/06/16 06:38:59;;;;;;;;;24.75;24.50;;;;;26.99;46.80;100775.59;5087861;27;45536;-44
2021/06/16 06:41:25;;;;;;;;;26.75;25.75;;;;;27.01;47.36;100775.47;5092737;27;47752;-43
2021/06/16 06:43:50;;;;;;;;;25.25;25.25;;;;;27.01;47.40;100773.63;5087388;27;45461;-44
2021/06/16 06:46:16;;;;;;;;;23.25;22.50;;;;;27.02;46.78;100769.91;5088292;27;45792;-45
2021/06/16 06:48:42;;;;;;;;;25.50;25.50;;;;;27.05;47.12;100768.75;5081121;27;45349;-45
2021/06/16 06:51:08;;;;;;;;;27.50;27.50;;;;;27.05;47.01;100764.19;5091277;27;46014;-47
2021/06/16 06:53:33;;;;;;;;;24.50;23.50;;;;;27.06;47.26;100768.66;5081750;27;45471;-47
2021/06/16 06:55:59;;;;;;;;;21.75;21.00;;;;;27.08;46.65;100766.66;5090612;27;45421;-44
2021/06/16 06:58:26;;;;;;;;;24.50;24.50;;;;;27.09;46.49;100768.38;5090236;27;47020;-46
2021/06/16 07:00:52;;;;;;;;;23.25;22.75;;;;;27.10;46.58;100767.38;5084927;27;46804;-49
2021/06/16 07:03:18;;;;;;;;;22.75;22.50;;;;;27.10;47.35;100764.66;5085965;27;45833;-45
2021/06/16 07:05:43;;;;;;;;;28.75;28.75;;;;;27.13;46.65;100761.63;5084498;27;45367;-44
2021/06/16 07:08:09;;;;;;;;;23.75;23.50;;;;;27.12;46.88;100757.19;5081732;27;45734;-45
2021/06/16 07:10:35;;;;;;;;;23.75;22.00;;;;;27.13;46.71;100755.31;5088142;27;47126;-48
2021/06/16 07:13:00;;;;;;;;;20.75;20.75;;;;;27.15;47.40;100753.31;5086049;27;46022;-45
2021/06/16 07:15:26;;;;;;;;;24.00;22.50;;;;;27.17;46.89;100745.88;5083382;27;45859;-46
2021/06/16 07:17:52;;;;;;;;;27.75;27.00;;;;;27.18;47.34;100745.72;5084566;27;45697;-45
2021/06/16 07:20:18;;;;;;;;;28.25;27.25;;;;;27.18;47.25;100747.59;5075647;27;47403;-45
2021/06/16 07:22:44;;;;;;;;;22.25;21.25;;;;;27.19;47.30;100750.19;5084574;27;45397;-43
2021/06/16 07:25:10;;;;;;;;;21.00;21.00;;;;;27.21;47.01;100744.59;5091458;27;45399;-45
2021/06/16 07:27:36;;;;;;;;;19.75;19.75;;;;;27.23;47.22;100746.19;5085184;27;45689;-45
2021/06/16 07:30:03;;;;;;;;;21.25;20.25;;;;;27.26;46.80;100750.50;5084306;27;46657;-46
2021/06/16 07:32:29;;;;;;;;;21.25;20.25;;;;;27.29;46.46;100747.47;5081430;27;45578;-48
2021/06/16 07:34:54;;;;;;;;;24.75;23.25;;;;;27.32;46.83;100749.09;5083589;27;45764;-50
2021/06/16 07:37:20;;;;;;;;;20.75;19.75;;;;;27.33;46.55;100751.66;5105432;27;45514;-46
2021/06/16 07:39:45;;;;;;;;;21.50;21.00;;;;;27.34;47.11;100745.22;5090381;27;46979;-49
2021/06/16 07:42:12;;;;;;;;;21.25;21.00;;;;;27.37;46.35;100746.78;5091660;27;45459;-50
2021/06/16 07:44:38;;;;;;;;;24.00;22.50;;;;;27.38;46.83;100743.91;5087448;27;45466;-46
2021/06/16 07:47:04;;;;;;;;;21.50;21.50;;;;;27.40;46.83;100735.59;5095075;27;47187;-46
2021/06/16 07:49:30;;;;;;;;;20.50;20.50;;;;;27.41;46.60;100735.44;5098408;27;47899;-45
2021/06/16 07:51:56;;;;;;;;;19.50;19.25;;;;;27.43;46.43;100732.56;5094999;27;45451;-47
2021/06/16 07:54:22;;;;;;;;;19.25;19.25;;;;;27.46;46.46;100727.72;5081306;27;45994;-49
2021/06/16 07:56:48;;;;;;;;;19.00;17.75;;;;;27.49;46.75;100726.56;5089485;27;45426;-46
2021/06/16 07:59:14;;;;;;;;;18.50;17.50;;;;;27.51;45.84;100716.38;5080940;27;47477;-46
2021/06/16 08:01:42;;;;;;;;;17.50;17.50;;;;;27.53;46.34;100717.97;5086255;27;45863;-47
2021/06/16 08:04:08;;;;;;;;;19.50;18.75;;;;;27.55;46.20;100724.13;5085041;27;45384;-49
2021/06/16 08:06:33;;;;;;;;;16.00;16.00;;;;;27.59;45.54;100721.13;5084045;27;45886;-46
2021/06/16 08:08:59;;;;;;;;;17.50;17.50;;;;;27.60;45.58;100729.16;5108653;27;48135;-52
2021/06/16 08:11:25;;;;;;;;;14.50;14.00;;;;;27.61;45.76;100717.25;5083098;27;45736;-47
2021/06/16 08:13:51;;;;;;;;;18.50;18.50;;;;;27.62;45.32;100709.94;5086305;27;45566;-50
2021/06/16 08:16:21;;;;;;;;;17.00;15.50;;;;;27.62;45.02;100705.34;5082703;27;45333;-49
2021/06/16 08:18:49;;;;;;;;;15.50;14.50;;;;;27.63;44.69;100707.06;5079196;27;47971;-49
2021/06/16 08:21:16;;;;;;;;;15.00;14.75;;;;;27.66;45.04;100711.41;5092432;27;46024;-49
2021/06/16 08:23:46;;;;;;;;;17.00;17.00;;;;;27.67;45.19;100713.97;5090788;27;45364;-46
2021/06/16 08:26:12;;;;;;;;;13.00;13.00;;;;;27.69;45.26;100709.25;5082924;27;45528;-50
2021/06/16 08:28:38;;;;;;;;;17.75;16.50;;;;;27.72;44.64;100705.38;5082293;27;46795;-52
2021/06/16 08:31:04;;;;;;;;;17.00;16.00;;;;;27.74;44.86;100706.09;5093155;27;45468;-50
2021/06/16 08:33:30;;;;;;;;;13.75;13.75;;;;;27.76;44.71;100704.09;5085138;27;45389;-49
2021/06/16 08:35:55;;;;;;;;;15.25;15.25;;;;;27.78;44.97;100700.19;5087183;27;45334;-48
2021/06/16 08:38:21;;;;;;;;;13.25;13.25;;;;;27.80;44.53;100697.31;5083779;27;48140;-46
2021/06/16 08:40:47;;;;;;;;;15.75;15.75;;;;;27.83;44.69;100694.34;5091391;27;45741;-47
2021/06/16 08:43:15;;;;;;;;;19.00;18.00;;;;;27.85;45.33;100695.91;5088804;27;45424;-50
2021/06/16 08:45:43;;;;;;;;;17.00;17.00;;;;;27.88;44.75;100688.44;5088878;27;45505;-45
2021/06/16 08:48:09;;;;;;;;;17.25;16.50;;;;;27.89;44.75;100685.56;5089198;27;45458;-51
2021/06/16 08:50:36;;;;;;;;;18.75;18.00;;;;;27.93;45.11;100686.97;5088571;27;45753;-51
2021/06/16 08:53:03;;;;;;;;;15.00;15.00;;;;;27.95;44.33;100687.72;5096144;27;45474;-49
2021/06/16 08:55:29;;;;;;;;;13.50;13.50;;;;;27.98;44.33;100687.41;5086883;27;45663;-48
2021/06/16 08:57:54;;;;;;;;;16.50;13.50;;;;;28.01;44.07;100684.38;5065094;28;47147;-50
2021/06/16 09:00:22;;;;;;;;;14.75;14.75;;;;;28.04;44.51;100691.41;5080466;27;45413;-50
2021/06/16 09:02:48;;;;;;;;;15.00;15.00;;;;;28.05;44.43;100682.22;5087690;27;45770;-47
2021/06/16 09:05:14;;;;;;;;;16.00;13.25;;;;;28.08;44.43;100691.00;5092511;27;45293;-50
2021/06/16 09:07:42;;;;;;;;;14.25;13.50;;;;;28.09;44.06;100676.34;5085538;27;47355;-50
2021/06/16 09:10:11;;;;;;;;;15.50;14.50;;;;;28.12;44.08;100678.78;5087729;27;46089;-49
2021/06/16 09:12:45;;;;;;;;;15.00;13.25;;;;;28.14;43.76;100671.28;5081811;27;45505;-50
2021/06/16 09:15:20;;;;;;;;;13.25;13.25;;;;;28.19;43.74;100675.44;5084642;27;45503;-51
2021/06/16 09:18:06;;;;;;;;;13.25;13.25;;;;;28.20;44.13;100672.56;5084322;27;47454;-47
2021/06/16 09:20:35;;;;;;;;;14.25;13.50;;;;;28.23;43.69;100671.44;5092608;27;45727;-52
2021/06/16 09:23:15;;;;;;;;;13.75;13.25;;;;;28.25;43.93;100673.00;5082286;27;45527;-48
2021/06/16 09:25:42;;;;;;;;;13.75;13.75;;;;;28.27;44.17;100662.81;5090955;27;45591;-41
2021/06/16 09:28:08;;;;;;;;;13.00;13.00;;;;;28.31;43.35;100664.22;5080713;27;47712;-42
2021/06/16 09:30:37;;;;;;;;;14.25;14.00;;;;;28.35;43.89;100662.09;5083210;27;45849;-40
2021/06/16 09:33:15;;;;;;;;;13.25;13.25;;;;;28.39;43.40;100658.91;5082511;27;45523;-42
2021/06/16 09:35:49;;;;;;;;;15.25;15.25;;;;;28.41;43.94;100656.00;5084974;27;45774;-42
2021/06/16 09:38:33;;;;;;;;;12.50;11.50;;;;;28.44;43.27;100659.28;5078395;27;47320;-42
2021/06/16 09:41:01;;;;;;;;;13.00;13.00;;;;;28.48;43.34;100656.28;5086463;27;45421;-42
2021/06/16 09:43:29;;;;;;;;;13.75;13.75;;;;;28.51;43.24;100655.97;5087929;27;45461;-45
2021/06/16 09:46:04;;;;;;;;;15.50;12.75;;;;;28.54;42.61;100655.66;5092693;27;45354;-43
2021/06/16 09:48:30;;;;;;;;;15.25;15.25;;;;;28.56;42.72;100661.84;5089336;27;47300;-43
2021/06/16 09:51:18;;;;;;;;;16.00;15.00;;;;;28.58;42.73;100657.06;5098913;27;45466;-42
2021/06/16 09:54:13;;;;;;;;;13.50;12.75;;;;;28.61;42.40;100629.50;5090036;27;45672;-43
2021/06/16 09:56:42;;;;;;;;;12.00;12.00;;;;;28.64;42.89;100624.59;5092565;27;45651;-42
2021/06/16 09:59:09;;;;;;;;;13.50;13.50;;;;;28.66;42.26;100629.88;5082136;27;45469;-43
2021/06/16 10:01:50;;;;;;;;;11.25;10.50;;;;;28.69;42.50;100640.50;5090094;27;46169;-42
2021/06/16 10:04:35;;;;;;;;;13.75;13.75;;;;;28.71;42.74;100644.81;5088332;27;45746;-43
2021/06/16 10:07:11;;;;;;;;;13.75;13.75;;;;;28.75;42.70;100645.38;5097861;27;46547;-42
2021/06/16 10:09:48;;;;;;;;;16.75;15.50;;;;;28.77;42.66;100639.75;5087375;27;46786;-43
2021/06/16 10:12:17;;;;;;;;;14.00;14.00;;;;;28.78;42.30;100642.31;5093879;27;45452;-43
2021/06/16 10:14:43;;;;;;;;;14.75;13.50;;;;;28.80;42.29;100640.28;5092961;27;45465;-42
2021/06/16 10:17:09;;;;;;;;;14.25;13.00;;;;;28.83;42.56;100648.19;5083238;27;45525;-42
2021/06/16 10:19:35;;;;;;;;;13.75;13.00;;;;;28.86;41.94;100642.44;5086064;27;47007;-43
2021/06/16 10:22:04;;;;;;;;;15.25;15.25;;;;;28.88;41.63;100636.84;5083812;27;45398;-42
2021/06/16 10:24:30;;;;;;;;;14.00;14.00;;;;;28.89;41.78;100639.41;5081287;27;45566;-42
2021/06/16 10:27:03;;;;;;;;;15.50;15.25;;;;;28.91;41.51;100633.78;5096487;27;45685;-42
2021/06/16 10:29:37;;;;;;;;;15.00;13.75;;;;;28.94;41.88;100628.03;5091298;27;47618;-50
2021/06/16 10:32:04;;;;;;;;;14.00;14.00;;;;;28.97;41.33;100630.47;5086085;27;45323;-48
2021/06/16 10:34:52;;;;;;;;;15.50;15.50;;;;;29.00;41.79;100632.88;5085187;27;45528;-53
2021/06/16 10:37:36;;;;;;;;;16.50;16.50;;;;;29.05;42.03;100632.41;5084306;27;45475;-54
2021/06/16 10:40:17;;;;;;;;;15.75;12.75;;;;;29.09;41.50;100622.88;5088698;27;48010;-56
2021/06/16 10:43:02;;;;;;;;;14.00;14.00;;;;;29.13;41.27;100605.19;5094602;27;45413;-56
2021/06/16 10:45:34;;;;;;;;;14.75;12.75;;;;;29.16;41.31;100602.13;5085314;27;45463;-55
2021/06/16 10:48:03;;;;;;;;;13.25;12.00;;;;;29.20;41.12;100601.66;5097916;27;45313;-56
2021/06/16 10:50:48;;;;;;;;;14.25;13.00;;;;;29.25;41.35;100601.19;5095589;27;48102;-54
2021/06/16 10:53:15;;;;;;;;;13.75;13.00;;;;;29.28;40.95;100603.59;5084531;27;45443;-52
2021/06/16 10:55:57;;;;;;;;;16.75;15.25;;;;;29.32;40.59;100602.28;5081700;27;45472;-52
2021/06/16 10:58:45;;;;;;;;;12.25;11.25;;;;;29.36;40.78;100608.31;5084918;27;45737;-53
2021/06/16 11:01:20;;;;;;;;;17.50;15.50;;;;;29.38;40.55;100609.88;5088187;27;46192;-56
2021/06/16 11:03:46;;;;;;;;;13.50;13.00;;;;;29.41;40.10;100604.06;5082780;27;45403;-52
2021/06/16 11:06:30;;;;;;;;;15.75;15.00;;;;;29.44;40.16;100597.41;5089489;27;45661;-53
2021/06/16 11:08:55;;;;;;;;;13.00;13.00;;;;;29.45;39.49;100597.25;5089332;27;45479;-52
2021/06/16 11:11:23;;;;;;;;;12.25;12.25;;;;;29.46;39.87;100592.66;5088889;27;45690;-54
2021/06/16 11:13:49;;;;;;;;;13.50;13.50;;;;;29.49;39.83;100592.38;5091093;27;45604;-54